Terminal Aerodrome Forecast
Issued by NWS Salt Lake City, UT

Home | Current Version | Previous Version | Text Only | Print | Product List | Glossary On
Versions: 1 2 3 4 5 6 7 8 9 10 11 12 13 14 15 16 17 18 19 20 21 22 23 24 25 26 27 28 29 30 31 32 33 34
000
FTUS45 KSLC 241120
TAFCDC
TAF
KCDC 241120Z 2412/2512 VRB04KT P6SM SCT080 SCT150
     FM241800 21012G20KT P6SM SCT040 BKN080
     FM250000 22014G24KT P6SM VCSH SCT020 BKN040
     FM250300 22010KT 2SM -SN BR SCT007 BKN015
     FM250600 31008KT 1SM -SN BR SCT003 BKN009
     FM250900 VRB04KT P6SM VCSH SCT020 BKN040=

USA.gov is the U.S. government's official web portal to all federal, state and local government web resources and services.